Map

Track Data

SID SEASON NUMBER BASIN SUBBASIN NAME ISO_TIME NATURE LAT LON WMO_WIND WMO_PRES WMO_AGENCY TRACK_TYPE DIST2LAND LANDFALL IFLAG USA_AGENCY USA_ATCF_ID USA_LAT USA_LON USA_RECORD USA_STATUS USA_WIND USA_PRES USA_SSHS USA_R34_NE USA_R34_SE USA_R34_SW USA_R34_NW USA_R50_NE USA_R50_SE USA_R50_SW USA_R50_NW USA_R64_NE USA_R64_SE USA_R64_SW USA_R64_NW USA_POCI USA_ROCI USA_RMW USA_EYE TOKYO_LAT TOKYO_LON TOKYO_GRADE TOKYO_WIND TOKYO_PRES TOKYO_R50_DIR TOKYO_R50_LONG TOKYO_R50_SHORT TOKYO_R30_DIR TOKYO_R30_LONG TOKYO_R30_SHORT TOKYO_LAND CMA_LAT CMA_LON CMA_CAT CMA_WIND CMA_PRES HKO_LAT HKO_LON HKO_CAT HKO_WIND HKO_PRES NEWDELHI_LAT NEWDELHI_LON NEWDELHI_GRADE NEWDELHI_WIND NEWDELHI_PRES NEWDELHI_CI NEWDELHI_DP NEWDELHI_POCI REUNION_LAT REUNION_LON REUNION_TYPE REUNION_WIND REUNION_PRES REUNION_TNUM REUNION_CI REUNION_RMW REUNION_R34_NE REUNION_R34_SE REUNION_R34_SW REUNION_R34_NW REUNION_R50_NE REUNION_R50_SE REUNION_R50_SW REUNION_R50_NW REUNION_R64_NE REUNION_R64_SE REUNION_R64_SW REUNION_R64_NW BOM_LAT BOM_LON BOM_TYPE BOM_WIND BOM_PRES BOM_TNUM BOM_CI BOM_RMW BOM_R34_NE BOM_R34_SE BOM_R34_SW BOM_R34_NW BOM_R50_NE BOM_R50_SE BOM_R50_SW BOM_R50_NW BOM_R64_NE BOM_R64_SE BOM_R64_SW BOM_R64_NW BOM_ROCI BOM_POCI BOM_EYE BOM_POS_METHOD BOM_PRES_METHOD NADI_LAT NADI_LON NADI_CAT NADI_WIND NADI_PRES WELLINGTON_LAT WELLINGTON_LON WELLINGTON_WIND WELLINGTON_PRES DS824_LAT DS824_LON DS824_STAGE DS824_WIND DS824_PRES TD9636_LAT TD9636_LON TD9636_STAGE TD9636_WIND TD9636_PRES TD9635_LAT TD9635_LON TD9635_WIND TD9635_PRES TD9635_ROCI NEUMANN_LAT NEUMANN_LON NEUMANN_CLASS NEUMANN_WIND NEUMANN_PRES MLC_LAT MLC_LON MLC_CLASS MLC_WIND MLC_PRES USA_GUST BOM_GUST BOM_GUST_PER REUNION_GUST REUNION_GUST_PER USA_SEAHGT USA_SEARAD_NE USA_SEARAD_SE USA_SEARAD_SW USA_SEARAD_NW STORM_SPEED STORM_DIR
1938253N13341 1938 48 NA NA NOT_NAMED 1938-09-09 12:00:00 TS 12.8000 -19.4000 30 hurdat_atl main 282 282 O_____________ hurdat_atl AL061938 12.8000 -19.4000 TD 30 -1 12 280
1938253N13341 1938 48 NA NA NOT_NAMED 1938-09-09 15:00:00 TS 12.9003 -19.9999 main 336 336 P_____________ AL061938 12.9003 -19.9999 TD 30 -1 12 280
1938253N13341 1938 48 NA NA NOT_NAMED 1938-09-09 18:00:00 TS 13.0000 -20.6000 30 hurdat_atl main 385 385 O_____________ hurdat_atl AL061938 13.0000 -20.6000 TD 30 -1 12 280
1938253N13341 1938 48 NA NA NOT_NAMED 1938-09-09 21:00:00 TS 13.0999 -21.2000 main 437 437 P_____________ AL061938 13.0999 -21.2000 TD 30 -1 12 280
1938253N13341 1938 48 NA NA NOT_NAMED 1938-09-10 00:00:00 TS 13.2000 -21.8000 30 hurdat_atl main 493 493 O_____________ hurdat_atl AL061938 13.2000 -21.8000 TD 30 -1 12 280
1938253N13341 1938 48 NA NA NOT_NAMED 1938-09-10 03:00:00 TS 13.2999 -22.4000 main 551 551 P_____________ AL061938 13.2999 -22.4000 TD 32 -1 12 280
1938253N13341 1938 48 NA NA NOT_NAMED 1938-09-10 06:00:00 TS 13.4000 -23.0000 35 hurdat_atl main 611 611 O_____________ hurdat_atl AL061938 13.4000 -23.0000 TS 35 0 12 280
1938253N13341 1938 48 NA NA NOT_NAMED 1938-09-10 09:00:00 TS 13.4999 -23.6075 main 671 671 P_____________ AL061938 13.4999 -23.6075 TS 37 0 12 280
1938253N13341 1938 48 NA NA NOT_NAMED 1938-09-10 12:00:00 TS 13.6000 -24.2000 40 hurdat_atl main 733 733 O_____________ hurdat_atl AL061938 13.6000 -24.2000 TS 40 0 11 280
1938253N13341 1938 48 NA NA NOT_NAMED 1938-09-10 15:00:00 TS 13.6999 -24.7650 main 795 795 P_____________ AL061938 13.6999 -24.7650 TS 40 0 11 281
1938253N13341 1938 48 NA NA NOT_NAMED 1938-09-10 18:00:00 TS 13.8000 -25.3000 40 hurdat_atl main 847 847 O_____________ hurdat_atl AL061938 13.8000 -25.3000 TS 40 0 10 281
1938253N13341 1938 48 NA NA NOT_NAMED 1938-09-10 21:00:00 TS 13.8998 -25.8001 main 899 899 P_____________ AL061938 13.8998 -25.8001 TS 42 0 10 282
1938253N13341 1938 48 NA NA NOT_NAMED 1938-09-11 00:00:00 TS 14.0000 -26.3000 45 hurdat_atl main 951 951 O_____________ hurdat_atl AL061938 14.0000 -26.3000 TS 45 0 10 281
1938253N13341 1938 48 NA NA NOT_NAMED 1938-09-11 03:00:00 TS 14.0924 -26.8426 main 1004 1004 P_____________ AL061938 14.0924 -26.8426 TS 45 0 11 281
1938253N13341 1938 48 NA NA NOT_NAMED 1938-09-11 06:00:00 TS 14.2000 -27.4000 45 hurdat_atl main 1067 1067 O_____________ hurdat_atl AL061938 14.2000 -27.4000 TS 45 0 11 284
1938253N13341 1938 48 NA NA NOT_NAMED 1938-09-11 09:00:00 TS 14.3498 -27.9425 main 1120 1120 P_____________ AL061938 14.3498 -27.9425 TS 45 0 11 286
1938253N13341 1938 48 NA NA NOT_NAMED 1938-09-11 12:00:00 TS 14.5000 -28.5000 45 hurdat_atl main 1184 1184 O_____________ hurdat_atl AL061938 14.5000 -28.5000 TS 45 0 11 283
1938253N13341 1938 48 NA NA NOT_NAMED 1938-09-11 15:00:00 TS 14.6073 -29.0851 main 1248 1248 P_____________ AL061938 14.6073 -29.0851 TS 45 0 12 280
1938253N13341 1938 48 NA NA NOT_NAMED 1938-09-11 18:00:00 TS 14.7000 -29.7000 45 hurdat_atl main 1312 1312 O_____________ hurdat_atl AL061938 14.7000 -29.7000 TS 45 0 12 279
1938253N13341 1938 48 NA NA NOT_NAMED 1938-09-11 21:00:00 TS 14.7923 -30.3351 main 1376 1376 P_____________ AL061938 14.7923 -30.3351 TS 45 0 13 279
1938253N13341 1938 48 NA NA NOT_NAMED 1938-09-12 00:00:00 TS 14.9000 -31.0000 45 hurdat_atl main 1451 1451 O_____________ hurdat_atl AL061938 14.9000 -31.0000 TS 45 0 13 281
1938253N13341 1938 48 NA NA NOT_NAMED 1938-09-12 03:00:00 TS 15.0424 -31.7000 main 1527 1526 P_____________ AL061938 15.0424 -31.7000 TS 45 0 14 283
1938253N13341 1938 48 NA NA NOT_NAMED 1938-09-12 06:00:00 TS 15.2000 -32.4000 45 hurdat_atl main 1602 1602 O_____________ hurdat_atl AL061938 15.2000 -32.4000 TS 45 0 14 283
1938253N13341 1938 48 NA NA NOT_NAMED 1938-09-12 09:00:00 TS 15.3424 -33.0801 main 1677 1677 P_____________ AL061938 15.3424 -33.0801 TS 45 0 13 283
1938253N13341 1938 48 NA NA NOT_NAMED 1938-09-12 12:00:00 TS 15.5000 -33.7000 45 hurdat_atl main 1741 1741 O_____________ hurdat_atl AL061938 15.5000 -33.7000 TS 45 0 12 287
1938253N13341 1938 48 NA NA NOT_NAMED 1938-09-12 15:00:00 TS 15.6847 -34.2226 main 1795 1795 P_____________ AL061938 15.6847 -34.2226 TS 45 0 10 293
1938253N13341 1938 48 NA NA NOT_NAMED 1938-09-12 18:00:00 TS 15.9000 -34.7000 45 hurdat_atl main 1849 1849 O_____________ hurdat_atl AL061938 15.9000 -34.7000 TS 45 0 10 296
1938253N13341 1938 48 NA NA NOT_NAMED 1938-09-12 21:00:00 TS 16.1424 -35.2001 main 1904 1904 P_____________ AL061938 16.1424 -35.2001 TS 45 0 11 298
1938253N13341 1938 48 NA NA NOT_NAMED 1938-09-13 00:00:00 TS 16.4000 -35.7000 45 hurdat_atl main 1959 1959 O_____________ hurdat_atl AL061938 16.4000 -35.7000 TS 45 0 11 299
1938253N13341 1938 48 NA NA NOT_NAMED 1938-09-13 03:00:00 TS 16.6649 -36.2000 main 2014 2014 P_____________ AL061938 16.6649 -36.2000 TS 45 0 11 298
1938253N13341 1938 48 NA NA NOT_NAMED 1938-09-13 06:00:00 TS 16.9000 -36.7000 45 hurdat_atl main 2068 2068 O_____________ hurdat_atl AL061938 16.9000 -36.7000 TS 45 0 10 294
1938253N13341 1938 48 NA NA NOT_NAMED 1938-09-13 09:00:00 TS 17.0798 -37.1926 main 2102 2070 P_____________ AL061938 17.0798 -37.1926 TS 45 0 10 287
1938253N13341 1938 48 NA NA NOT_NAMED 1938-09-13 12:00:00 TS 17.2000 -37.7000 45 hurdat_atl main 2070 2039 O_____________ hurdat_atl AL061938 17.2000 -37.7000 TS 45 0 10 281
1938253N13341 1938 48 NA NA NOT_NAMED 1938-09-13 15:00:00 TS 17.2723 -38.2351 main 2039 1994 P_____________ AL061938 17.2723 -38.2351 TS 47 0 11 275
1938253N13341 1938 48 NA NA NOT_NAMED 1938-09-13 18:00:00 TS 17.3000 -38.8000 50 hurdat_atl main 1994 1950 O_____________ hurdat_atl AL061938 17.3000 -38.8000 TS 50 0 11 271
1938253N13341 1938 48 NA NA NOT_NAMED 1938-09-13 21:00:00 TS 17.2999 -39.3926 main 1950 1907 P_____________ AL061938 17.2999 -39.3926 TS 50 0 11 270
1938253N13341 1938 48 NA NA NOT_NAMED 1938-09-14 00:00:00 TS 17.3000 -40.0000 50 hurdat_atl main 1907 1865 O_____________ hurdat_atl AL061938 17.3000 -40.0000 TS 50 0 12 272
1938253N13341 1938 48 NA NA NOT_NAMED 1938-09-14 03:00:00 TS 17.3424 -40.6075 main 1865 1834 P_____________ AL061938 17.3424 -40.6075 TS 52 0 12 275
1938253N13341 1938 48 NA NA NOT_NAMED 1938-09-14 06:00:00 TS 17.4000 -41.2000 55 hurdat_atl main 1834 1802 O_____________ hurdat_atl AL061938 17.4000 -41.2000 TS 55 0 11 276
1938253N13341 1938 48 NA NA NOT_NAMED 1938-09-14 09:00:00 TS 17.4498 -41.7650 main 1795 1774 P_____________ AL061938 17.4498 -41.7650 TS 55 0 11 275
1938253N13341 1938 48 NA NA NOT_NAMED 1938-09-14 12:00:00 TS 17.5000 -42.3000 55 hurdat_atl main 1774 1742 O_____________ hurdat_atl AL061938 17.5000 -42.3000 TS 55 0 10 276
1938253N13341 1938 48 NA NA NOT_NAMED 1938-09-14 15:00:00 TS 17.5498 -42.8075 main 1742 1718 P_____________ AL061938 17.5498 -42.8075 TS 57 0 10 276
1938253N13341 1938 48 NA NA NOT_NAMED 1938-09-14 18:00:00 TS 17.6000 -43.3000 60 hurdat_atl main 1718 1686 O_____________ hurdat_atl AL061938 17.6000 -43.3000 TS 60 0 10 276
1938253N13341 1938 48 NA NA NOT_NAMED 1938-09-14 21:00:00 TS 17.6499 -43.8000 main 1686 1665 P_____________ AL061938 17.6499 -43.8000 TS 62 0 10 276
1938253N13341 1938 48 NA NA NOT_NAMED 1938-09-15 00:00:00 TS 17.7000 -44.3000 65 hurdat_atl main 1665 1637 O_____________ hurdat_atl AL061938 17.7000 -44.3000 HU 65 1 10 276
1938253N13341 1938 48 NA NA NOT_NAMED 1938-09-15 03:00:00 TS 17.7499 -44.8000 main 1637 1619 P_____________ AL061938 17.7499 -44.8000 HU 67 1 10 276
1938253N13341 1938 48 NA NA NOT_NAMED 1938-09-15 06:00:00 TS 17.8000 -45.3000 70 hurdat_atl main 1619 1593 O_____________ hurdat_atl AL061938 17.8000 -45.3000 HU 70 1 10 276
1938253N13341 1938 48 NA NA NOT_NAMED 1938-09-15 09:00:00 TS 17.8424 -45.8001 main 1593 1578 P_____________ AL061938 17.8424 -45.8001 HU 72 1 10 276
1938253N13341 1938 48 NA NA NOT_NAMED 1938-09-15 12:00:00 TS 17.9000 -46.3000 75 hurdat_atl main 1578 1563 O_____________ hurdat_atl AL061938 17.9000 -46.3000 HU 75 1 10 279
1938253N13341 1938 48 NA NA NOT_NAMED 1938-09-15 15:00:00 TS 17.9924 -46.8000 main 1564 1551 P_____________ AL061938 17.9924 -46.8000 HU 77 1 10 282
1938253N13341 1938 48 NA NA NOT_NAMED 1938-09-15 18:00:00 TS 18.1000 -47.3000 80 hurdat_atl main 1553 1542 O_____________ hurdat_atl AL061938 18.1000 -47.3000 HU 80 1 10 282
1938253N13341 1938 48 NA NA NOT_NAMED 1938-09-15 21:00:00 TS 18.1923 -47.7926 main 1542 1528 P_____________ AL061938 18.1923 -47.7926 HU 82 1 10 282
1938253N13341 1938 48 NA NA NOT_NAMED 1938-09-16 00:00:00 TS 18.3000 -48.3000 85 hurdat_atl main 1529 1517 O_____________ hurdat_atl AL061938 18.3000 -48.3000 HU 85 2 10 284
1938253N13341 1938 48 NA NA NOT_NAMED 1938-09-16 03:00:00 TS 18.4424 -48.8425 main 1517 1511 P_____________ AL061938 18.4424 -48.8425 HU 87 2 11 286
1938253N13341 1938 48 NA NA NOT_NAMED 1938-09-16 06:00:00 TS 18.6000 -49.4000 90 hurdat_atl main 1514 1491 O_____________ hurdat_atl AL061938 18.6000 -49.4000 HU 90 2 11 285
1938253N13341 1938 48 NA NA NOT_NAMED 1938-09-16 09:00:00 TS 18.7273 -49.9503 main 1483 1454 P_____________ AL061938 18.7273 -49.9503 HU 92 2 11 286
1938253N13341 1938 48 NA NA NOT_NAMED 1938-09-16 12:00:00 TS 18.9000 -50.5000 95 hurdat_atl main 1454 1427 O_____________ hurdat_atl AL061938 18.9000 -50.5000 HU 95 2 11 292
1938253N13341 1938 48 NA NA NOT_NAMED 1938-09-16 15:00:00 TS 19.1473 -51.0503 main 1419 1409 P_____________ AL061938 19.1473 -51.0503 HU 97 3 12 300
1938253N13341 1938 48 NA NA NOT_NAMED 1938-09-16 18:00:00 TS 19.5000 -51.6000 100 hurdat_atl main 1409 1402 O_____________ hurdat_atl AL061938 19.5000 -51.6000 HU 100 3 14 310
1938253N13341 1938 48 NA NA NOT_NAMED 1938-09-16 21:00:00 TS 20.0073 -52.1496 main 1411 1372 P_____________ AL061938 20.0073 -52.1496 HU 105 3 14 314
1938253N13341 1938 48 NA NA NOT_NAMED 1938-09-17 00:00:00 TS 20.5000 -52.7000 110 hurdat_atl main 1372 1325 O_____________ hurdat_atl AL061938 20.5000 -52.7000 HU 110 3 13 308
1938253N13341 1938 48 NA NA NOT_NAMED 1938-09-17 03:00:00 TS 20.8097 -53.2428 main 1325 1268 P_____________ AL061938 20.8097 -53.2428 HU 112 3 11 296
1938253N13341 1938 48 NA NA NOT_NAMED 1938-09-17 06:00:00 TS 21.0000 -53.8000 115 hurdat_atl main 1268 1220 O_____________ hurdat_atl AL061938 21.0000 -53.8000 HU 115 4 11 287
1938253N13341 1938 48 NA NA NOT_NAMED 1938-09-17 09:00:00 TS 21.1296 -54.3703 main 1210 1151 P_____________ AL061938 21.1296 -54.3703 HU 115 4 11 280
1938253N13341 1938 48 NA NA NOT_NAMED 1938-09-17 12:00:00 TS 21.2000 -55.0000 115 hurdat_atl main 1151 1084 O_____________ hurdat_atl AL061938 21.2000 -55.0000 HU 115 4 13 276
1938253N13341 1938 48 NA NA NOT_NAMED 1938-09-17 15:00:00 TS 21.2649 -55.7275 main 1084 1005 P_____________ AL061938 21.2649 -55.7275 HU 115 4 14 274
1938253N13341 1938 48 NA NA NOT_NAMED 1938-09-17 18:00:00 TS 21.3000 -56.5000 115 hurdat_atl main 1005 936 O_____________ hurdat_atl AL061938 21.3000 -56.5000 HU 115 4 14 271
1938253N13341 1938 48 NA NA NOT_NAMED 1938-09-17 21:00:00 TS 21.2996 -57.2427 main 936 858 P_____________ AL061938 21.2996 -57.2427 HU 117 4 14 270
1938253N13341 1938 48 NA NA NOT_NAMED 1938-09-18 00:00:00 TS 21.3000 -58.0000 120 hurdat_atl main 858 791 O_____________ hurdat_atl AL061938 21.3000 -58.0000 HU 120 4 14 271
1938253N13341 1938 48 NA NA NOT_NAMED 1938-09-18 03:00:00 TS 21.3269 -58.7703 main 781 711 P_____________ AL061938 21.3269 -58.7703 HU 122 4 15 274
1938253N13341 1938 48 NA NA NOT_NAMED 1938-09-18 06:00:00 TS 21.4000 -59.6000 125 hurdat_atl main 711 635 O_____________ hurdat_atl AL061938 21.4000 -59.6000 HU 125 4 16 277
1938253N13341 1938 48 NA NA NOT_NAMED 1938-09-18 09:00:00 TS 21.5197 -60.5202 main 635 573 P_____________ AL061938 21.5197 -60.5202 HU 125 4 18 280
1938253N13341 1938 48 NA NA NOT_NAMED 1938-09-18 12:00:00 TS 21.7000 -61.5000 125 hurdat_atl main 565 514 O_____________ hurdat_atl AL061938 21.7000 -61.5000 HU 125 4 19 283
1938253N13341 1938 48 NA NA NOT_NAMED 1938-09-18 15:00:00 TS 21.9270 -62.4927 main 507 478 P_____________ AL061938 21.9270 -62.4927 HU 127 4 19 285
1938253N13341 1938 48 NA NA NOT_NAMED 1938-09-18 18:00:00 TS 22.2000 -63.5000 130 hurdat_atl main 478 466 O_____________ hurdat_atl AL061938 22.2000 -63.5000 HU 130 4 19 287
1938253N13341 1938 48 NA NA NOT_NAMED 1938-09-18 21:00:00 TS 22.4844 -64.5004 main 472 468 P_____________ AL061938 22.4844 -64.5004 HU 130 4 19 288
1938253N13341 1938 48 NA NA NOT_NAMED 1938-09-19 00:00:00 TS 22.8000 -65.5000 130 hurdat_atl main 492 492 O_____________ hurdat_atl AL061938 22.8000 -65.5000 HU 130 4 20 290
1938253N13341 1938 48 NA NA NOT_NAMED 1938-09-19 03:00:00 TS 23.1419 -66.5004 main 514 501 P_____________ AL061938 23.1419 -66.5004 HU 132 4 20 291
1938253N13341 1938 48 NA NA NOT_NAMED 1938-09-19 06:00:00 TS 23.5000 -67.5000 135 hurdat_atl main 505 494 O_____________ hurdat_atl AL061938 23.5000 -67.5000 HU 135 4 20 291
1938253N13341 1938 48 NA NA NOT_NAMED 1938-09-19 09:00:00 TS 23.8574 -68.5301 main 505 494 P_____________ AL061938 23.8574 -68.5301 HU 135 4 20 291
1938253N13341 1938 48 NA NA NOT_NAMED 1938-09-19 12:00:00 TS 24.2000 -69.5000 135 hurdat_atl main 491 461 O_____________ hurdat_atl AL061938 24.2000 -69.5000 HU 135 4 18 292
1938253N13341 1938 48 NA NA NOT_NAMED 1938-09-19 15:00:00 TS 24.5219 -70.3528 main 454 446 P_____________ AL061938 24.5219 -70.3528 HU 137 5 16 292
1938253N13341 1938 48 NA NA NOT_NAMED 1938-09-19 18:00:00 TS 24.8000 -71.1000 140 hurdat_atl main 446 437 O_____________ hurdat_atl AL061938 24.8000 -71.1000 HU 140 5 14 290
1938253N13341 1938 48 NA NA NOT_NAMED 1938-09-19 21:00:00 TS 24.9997 -71.7957 main 442 439 P_____________ AL061938 24.9997 -71.7957 HU 140 5 12 289
1938253N13341 1938 48 NA NA NOT_NAMED 1938-09-20 00:00:00 TS 25.2000 -72.4000 140 hurdat_atl main 451 450 O_____________ hurdat_atl AL061938 25.2000 -72.4000 HU 140 5 11 294
1938253N13341 1938 48 NA NA NOT_NAMED 1938-09-20 03:00:00 TS 25.4622 -72.9304 main 480 456 P_____________ AL061938 25.4622 -72.9304 HU 140 5 11 304
1938253N13341 1938 48 NA NA NOT_NAMED 1938-09-20 06:00:00 TS 25.8000 -73.4000 140 hurdat_atl main 456 425 O_____________ hurdat_atl AL061938 25.8000 -73.4000 HU 140 5 11 311
1938253N13341 1938 48 NA NA NOT_NAMED 1938-09-20 09:00:00 TS 26.1975 -73.8875 main 425 406 P_____________ AL061938 26.1975 -73.8875 HU 137 5 12 318
1938253N13341 1938 48 NA NA NOT_NAMED 1938-09-20 12:00:00 TS 26.7000 -74.3000 135 hurdat_atl main 410 403 O_____________ hurdat_atl AL061938 26.7000 -74.3000 HU 135 4 13 329
1938253N13341 1938 48 NA NA NOT_NAMED 1938-09-20 15:00:00 TS 27.2824 -74.6101 main 418 417 P_____________ AL061938 27.2824 -74.6101 HU 132 4 14 341
1938253N13341 1938 48 NA NA NOT_NAMED 1938-09-20 18:00:00 TS 28.0000 -74.8000 130 hurdat_atl main 453 453 O_____________ hurdat_atl AL061938 28.0000 -74.8000 HU 130 4 16 350
1938253N13341 1938 48 NA NA NOT_NAMED 1938-09-20 21:00:00 TS 28.8174 -74.9242 main 514 514 P_____________ AL061938 28.8174 -74.9242 HU 125 4 18 357
1938253N13341 1938 48 NA NA NOT_NAMED 1938-09-21 00:00:00 TS 29.8000 -74.9000 120 hurdat_atl main 542 457 O_____________ hurdat_atl AL061938 29.8000 -74.9000 HU 120 4 21 4
1938253N13341 1938 48 NA NA NOT_NAMED 1938-09-21 03:00:00 TS 30.9097 -74.7527 main 449 349 P_____________ AL061938 30.9097 -74.7527 HU 120 4 24 10
1938253N13341 1938 48 NA NA NOT_NAMED 1938-09-21 06:00:00 TS 32.2000 -74.4000 120 hurdat_atl main 339 277 O_____________ hurdat_atl AL061938 32.2000 -74.4000 HU 120 4 28 18
1938253N13341 1938 48 NA NA NOT_NAMED 1938-09-21 09:00:00 TS 33.5742 -73.7324 main 279 226 P_____________ AL061938 33.5742 -73.7324 HU 115 4 32 20
1938253N13341 1938 48 NA NA NOT_NAMED 1938-09-21 12:00:00 TS 35.2000 -73.1000 110 940 hurdat_atl main 226 221 O_____________ hurdat_atl AL061938 35.2000 -73.1000 HU 110 940 3 37 11
1938253N13341 1938 48 NA NA NOT_NAMED 1938-09-21 15:00:00 TS 37.1668 -72.9022 main 228 124 P_____________ AL061938 37.1668 -72.9022 HU 107 940 3 41 2
1938253N13341 1938 48 NA NA NOT_NAMED 1938-09-21 18:00:00 TS 39.3000 -72.9000 105 940 hurdat_atl main 119 11 O_____________ hurdat_atl AL061938 39.3000 -72.9000 HU 105 940 3 42 0
1938253N13341 1938 48 NA NA NOT_NAMED 1938-09-21 20:00:00 TS 40.7000 -72.9000 105 941 hurdat_atl main 11 0 O_____________ hurdat_atl AL061938 40.7000 -72.9000 L HU 105 941 3 40 0
1938253N13341 1938 48 NA NA NOT_NAMED 1938-09-21 21:00:00 TS 41.3000 -72.9000 100 946 hurdat_atl main 0 0 O_____________ hurdat_atl AL061938 41.3000 -72.9000 L HU 100 946 3 41 357
1938253N13341 1938 48 NA NA NOT_NAMED 1938-09-22 00:00:00 ET 43.4000 -73.1000 60 969 hurdat_atl main 0 0 O_____________ hurdat_atl AL061938 43.4000 -73.1000 EX 60 969 -4 39 353
1938253N13341 1938 48 NA NA NOT_NAMED 1938-09-22 03:00:00 ET 45.1900 -73.6006 main 0 0 P_____________ AL061938 45.1900 -73.6006 EX 50 973 -4 33 342
1938253N13341 1938 48 NA NA NOT_NAMED 1938-09-22 06:00:00 ET 46.5000 -74.5000 40 hurdat_atl main 0 0 I_____________ hurdat_atl AL061938 46.5000 -74.5000 EX 40 978 -4 27 324
1938253N13341 1938 48 NA NA NOT_NAMED 1938-09-22 09:00:00 ET 47.3906 -75.9635 main 0 0 P_____________ AL061938 47.3906 -75.9635 EX 37 982 -4 22 302
1938253N13341 1938 48 NA NA NOT_NAMED 1938-09-22 12:00:00 ET 47.7000 -77.3000 35 987 hurdat_atl main 0 0 O_____________ hurdat_atl AL061938 47.7000 -77.3000 EX 35 987 -4 13 279
1938253N13341 1938 48 NA NA NOT_NAMED 1938-09-22 15:00:00 ET 47.5867 -77.8285 main 0 0 P_____________ AL061938 47.5867 -77.8285 EX 35 -4 8 206
1938253N13341 1938 48 NA NA NOT_NAMED 1938-09-22 18:00:00 ET 47.0000 -77.8000 35 hurdat_atl main 0 0 O_____________ hurdat_atl AL061938 47.0000 -77.8000 EX 35 -4 15 171
1938253N13341 1938 48 NA NA NOT_NAMED 1938-09-22 21:00:00 ET 46.0842 -77.4647 main 0 0 P_____________ AL061938 46.0842 -77.4647 EX 32 -4 21 164
1938253N13341 1938 48 NA NA NOT_NAMED 1938-09-23 00:00:00 ET 45.0000 -77.0000 30 hurdat_atl main 0 O_____________ hurdat_atl AL061938 45.0000 -77.0000 EX 30 -4 23 163

About IBTrACS Database

This database is a web-friendly format of International Best Track Archive for Climate Stewardship (IBTrACS), a global best track data archive curated by NOAA dating back to 1842.

Updated: 2021-10-21